Palmdale Regional/USAF Plant 42 Airport
KPMD : now visible

Airfield :











YOU CAN JOIN US ON...

 
LOGIN :

Register | Disclaimer

   EN    FR    IT 

 









Legend :    VFR   Marginal VFR   IFR   Intensive IFR   Very Intensive IFR
Visi :
Ceiling :
>= 8 km
>= 3000ft
5 to 8 km
1000 to 3000 ft
1500m to 5 km
500 to 1000 ft
800 to 1500m
200 to 500 ft
< 800m
< 200 ft
Symbols :   Thunderstorms  Fog  Heavy snow  Heavy precipitations  Wind > 20 kt






- Airport Elevation : 2543 ft
- IATA code : PMD


KPMD - Palmdale Regional/USAF Plant 42

CURRENT METAR :
  • 021353Z 28007KT 10SM CLR M02/M07 A3032 RMK AO2 SLP277 T10221067

EXPIRED METARs :
  • 021253Z AUTO 25003KT 10SM CLR 00/M07 A3031 RMK AO2 SLP265 T00001067
  • 021153Z AUTO 18003KT 10SM CLR M02/M07 A3030 RMK AO2 SLP262 7//// T10171067 10044 21017 53001

TAF KPMD
Valid from the 02 at 12:00 until the 03 at 12:00 UTC


021129Z 0212/0312 20006KT P6SM SKC
FM021400 VRB03KT P6SM FEW250
FM021800 10006KT P6SM SCT250
FM030800 19006KT P6SM BKN250
KZLA FIR / North America



MET'MAP, your aeronautical weather chart ! - Copyright ORBIFLY December 2007 - Disclaimer

ORBIFLY MET'MAP TEAM :

Programming & Development : Alexandra Zaïnal
Original concept : Baudouin d'Aumeries
Technical & hardware support : Manuel Goepfert
Assistance : Marc-Olivier Méhu




SOURCES & CREDITS :

   NOAA       Earth
Advisory